createdAt,value
2019-05-06T00:00:56.659Z,998.09
2019-05-06T00:01:54.044Z,998.10
2019-05-06T00:02:51.377Z,998.07
2019-05-06T00:03:51.363Z,998.09
2019-05-06T00:04:51.363Z,998.09
2019-05-06T00:05:51.362Z,998.12
2019-05-06T00:06:51.331Z,998.09
2019-05-06T00:07:51.323Z,998.05
2019-05-06T00:08:51.315Z,998.11
2019-05-06T00:09:51.300Z,998.09
2019-05-06T00:10:51.302Z,998.08
2019-05-06T00:11:51.295Z,998.08
2019-05-06T00:12:53.489Z,998.09
2019-05-06T00:13:51.256Z,998.01
2019-05-06T00:14:51.254Z,998.07
2019-05-06T00:15:51.235Z,998.06
2019-05-06T00:16:51.230Z,998.00
2019-05-06T00:17:51.230Z,998.03
2019-05-06T00:18:51.222Z,998.07
2019-05-06T00:19:51.205Z,997.99
2019-05-06T00:20:51.188Z,998.04
2019-05-06T00:21:51.185Z,998.04
2019-05-06T00:22:51.151Z,998.04
2019-05-06T00:23:51.157Z,998.03
2019-05-06T00:24:51.155Z,998.02
2019-05-06T00:25:51.117Z,998.06
2019-05-06T00:26:54.993Z,998.09
2019-05-06T00:27:54.303Z,998.08
2019-05-06T00:28:51.095Z,998.05
2019-05-06T00:29:51.109Z,998.05
2019-05-06T00:30:51.059Z,998.06
2019-05-06T00:31:51.062Z,998.02
2019-05-06T00:32:51.038Z,998.05
2019-05-06T00:33:51.036Z,998.09
2019-05-06T00:34:51.033Z,998.00
2019-05-06T00:35:51.029Z,998.10
2019-05-06T00:36:50.995Z,998.08
2019-05-06T00:37:51.006Z,998.14
2019-05-06T00:38:50.985Z,998.10
2019-05-06T00:39:50.973Z,998.16
2019-05-06T00:40:50.945Z,998.15
2019-05-06T00:41:50.952Z,998.17
2019-05-06T00:42:50.951Z,998.08
2019-05-06T00:43:50.914Z,998.13
2019-05-06T00:44:50.904Z,998.11
2019-05-06T00:45:50.896Z,998.10
2019-05-06T00:46:50.888Z,998.15
2019-05-06T00:47:50.899Z,998.11
2019-05-06T00:48:50.868Z,998.05
2019-05-06T00:49:50.848Z,998.09
2019-05-06T00:50:50.839Z,998.09
2019-05-06T00:51:50.841Z,998.08
2019-05-06T00:52:50.823Z,998.12
2019-05-06T00:53:50.825Z,998.08
2019-05-06T00:54:50.825Z,998.05
2019-05-06T00:55:50.789Z,998.07
2019-05-06T00:56:50.770Z,998.11
2019-05-06T00:57:50.767Z,997.99
2019-05-06T00:58:50.745Z,998.00
2019-05-06T00:59:50.761Z,998.07
2019-05-06T01:00:50.752Z,998.03
2019-05-06T01:01:50.750Z,998.07
2019-05-06T01:02:50.711Z,998.06
2019-05-06T01:03:50.692Z,998.09
2019-05-06T01:04:50.682Z,998.02
2019-05-06T01:05:50.688Z,998.03
2019-05-06T01:06:50.693Z,998.05
2019-05-06T01:07:50.669Z,998.06
2019-05-06T01:08:50.636Z,998.00
2019-05-06T01:09:50.626Z,998.02
2019-05-06T01:10:50.617Z,998.06
2019-05-06T01:11:50.631Z,998.02
2019-05-06T01:12:50.609Z,998.06
2019-05-06T01:13:50.587Z,998.07
2019-05-06T01:14:50.573Z,998.10
2019-05-06T01:15:50.578Z,998.09
2019-05-06T01:16:50.548Z,998.09
2019-05-06T01:17:50.552Z,998.06
2019-05-06T01:18:50.529Z,998.12
2019-05-06T01:19:50.514Z,998.13
2019-05-06T01:20:50.506Z,998.12
2019-05-06T01:21:50.524Z,998.12
2019-05-06T01:22:50.483Z,998.11
2019-05-06T01:23:50.496Z,998.07
2019-05-06T01:24:50.459Z,998.13
2019-05-06T01:25:50.460Z,998.12
2019-05-06T01:26:50.441Z,998.09
2019-05-06T01:27:50.423Z,998.16
2019-05-06T01:28:50.417Z,998.08
2019-05-06T01:29:50.418Z,998.08
2019-05-06T01:30:50.401Z,998.11
2019-05-06T01:31:50.405Z,998.11
2019-05-06T01:32:50.370Z,998.14
2019-05-06T01:33:50.358Z,998.15
2019-05-06T01:34:50.343Z,998.10
2019-05-06T01:35:50.376Z,998.13
2019-05-06T01:36:50.325Z,998.07
2019-05-06T01:37:50.321Z,998.11
2019-05-06T01:38:50.301Z,998.10
2019-05-06T01:39:50.298Z,998.12
2019-05-06T01:40:50.279Z,998.16
2019-05-06T01:41:50.286Z,998.17
2019-05-06T01:42:50.256Z,998.16
2019-05-06T01:43:50.248Z,998.14
2019-05-06T01:44:50.252Z,998.19
2019-05-06T01:45:50.237Z,998.18
2019-05-06T01:46:50.222Z,998.16
2019-05-06T01:47:50.220Z,998.24
2019-05-06T01:48:50.188Z,998.21
2019-05-06T01:49:50.194Z,998.26
2019-05-06T01:50:50.187Z,998.24
2019-05-06T01:51:50.156Z,998.18
2019-05-06T01:52:50.150Z,998.21
2019-05-06T01:53:50.165Z,998.19
2019-05-06T01:54:50.135Z,998.25
2019-05-06T01:55:50.118Z,998.26
2019-05-06T01:56:50.098Z,998.27
2019-05-06T01:57:50.110Z,998.25
2019-05-06T01:58:50.077Z,998.20
2019-05-06T01:59:50.100Z,998.21
2019-05-06T02:00:50.066Z,998.24
2019-05-06T02:01:58.189Z,998.23
2019-05-06T02:02:51.037Z,998.21
2019-05-06T02:03:50.050Z,998.24
2019-05-06T02:04:50.036Z,998.23
2019-05-06T02:05:50.021Z,998.17
2019-05-06T02:06:49.988Z,998.22
2019-05-06T02:07:49.976Z,998.22
2019-05-06T02:08:50.009Z,998.26
2019-05-06T02:09:49.979Z,998.26
2019-05-06T02:10:49.954Z,998.28
2019-05-06T02:11:49.987Z,998.29
2019-05-06T02:12:49.933Z,998.29
2019-05-06T02:13:49.918Z,998.31
2019-05-06T02:14:49.924Z,998.32
2019-05-06T02:15:49.888Z,998.30
2019-05-06T02:16:49.878Z,998.32
2019-05-06T02:17:49.885Z,998.34
2019-05-06T02:18:49.858Z,998.34
2019-05-06T02:19:49.854Z,998.29
2019-05-06T02:20:49.836Z,998.28
2019-05-06T02:21:49.823Z,998.23
2019-05-06T02:22:49.818Z,998.30
2019-05-06T02:23:49.823Z,998.24
2019-05-06T02:24:49.803Z,998.20
2019-05-06T02:25:49.776Z,998.29
2019-05-06T02:26:49.775Z,998.23
2019-05-06T02:27:49.770Z,998.29
2019-05-06T02:28:49.773Z,998.25
2019-05-06T02:29:49.778Z,998.22
2019-05-06T02:30:49.728Z,998.26
2019-05-06T02:31:49.714Z,998.24
2019-05-06T02:32:49.738Z,998.23
2019-05-06T02:33:49.707Z,998.26
2019-05-06T02:34:49.680Z,998.31
2019-05-06T02:35:49.690Z,998.26
2019-05-06T02:36:49.652Z,998.32
2019-05-06T02:37:49.645Z,998.28
2019-05-06T02:38:52.348Z,998.29
2019-05-06T02:39:53.414Z,998.26
2019-05-06T02:40:49.609Z,998.24
2019-05-06T02:41:49.628Z,998.29
2019-05-06T02:42:49.618Z,998.22
2019-05-06T02:43:49.581Z,998.23
2019-05-06T02:44:49.562Z,998.27
2019-05-06T02:45:52.873Z,998.22
2019-05-06T02:46:49.554Z,998.24
2019-05-06T02:47:49.547Z,998.27
2019-05-06T02:48:49.535Z,998.25
2019-05-06T02:49:49.521Z,998.21
2019-05-06T02:50:49.519Z,998.23
2019-05-06T02:51:49.485Z,998.22
2019-05-06T02:52:49.481Z,998.21
2019-05-06T02:53:49.480Z,998.31
2019-05-06T02:54:49.450Z,998.26
2019-05-06T02:55:49.452Z,998.22
2019-05-06T02:56:49.433Z,998.33
2019-05-06T02:57:49.415Z,998.29
2019-05-06T02:58:49.410Z,998.23
2019-05-06T02:59:49.434Z,998.25
2019-05-06T03:00:49.406Z,998.29
2019-05-06T03:01:49.372Z,998.32
2019-05-06T03:02:49.390Z,998.30
2019-05-06T03:03:49.355Z,998.29
2019-05-06T03:04:49.349Z,998.27
2019-05-06T03:05:49.361Z,998.26
2019-05-06T03:06:49.336Z,998.27
2019-05-06T03:07:49.305Z,998.29
2019-05-06T03:08:49.297Z,998.26
2019-05-06T03:09:49.280Z,998.27
2019-05-06T03:10:49.281Z,998.26
2019-05-06T03:11:49.276Z,998.24
2019-05-06T03:12:49.245Z,998.24
2019-05-06T03:13:49.236Z,998.27
2019-05-06T03:14:49.230Z,998.23
2019-05-06T03:15:49.221Z,998.25
2019-05-06T03:16:49.218Z,998.24
2019-05-06T03:17:49.209Z,998.29
2019-05-06T03:18:49.179Z,998.27
2019-05-06T03:19:49.211Z,998.27
2019-05-06T03:20:49.161Z,998.23
2019-05-06T03:21:49.149Z,998.27
2019-05-06T03:22:49.137Z,998.24
2019-05-06T03:23:49.144Z,998.22
2019-05-06T03:24:49.120Z,998.20
2019-05-06T03:25:49.117Z,998.24
2019-05-06T03:26:49.090Z,998.26
2019-05-06T03:27:49.091Z,998.24
2019-05-06T03:28:49.072Z,998.26
2019-05-06T03:29:49.103Z,998.24
2019-05-06T03:30:49.085Z,998.29
2019-05-06T03:31:49.031Z,998.27
2019-05-06T03:33:28.120Z,998.26
2019-05-06T03:34:09.013Z,998.26
2019-05-06T03:35:09.013Z,998.26
2019-05-06T03:36:00.521Z,998.24
2019-05-06T03:36:55.483Z,998.30
2019-05-06T03:37:53.038Z,998.26
2019-05-06T03:38:48.969Z,998.23
2019-05-06T03:39:48.959Z,998.25
2019-05-06T03:40:48.949Z,998.25
2019-05-06T03:41:48.934Z,998.19
2019-05-06T03:42:48.917Z,998.24
2019-05-06T03:43:48.899Z,998.23
2019-05-06T03:44:48.897Z,998.18
2019-05-06T03:45:48.878Z,998.20
2019-05-06T03:46:48.898Z,998.20
2019-05-06T03:47:48.891Z,998.24
2019-05-06T03:48:48.841Z,998.27
2019-05-06T03:49:50.167Z,998.21
2019-05-06T03:50:48.819Z,998.29
2019-05-06T03:51:48.814Z,998.20
2019-05-06T03:52:48.825Z,998.26
2019-05-06T03:53:48.786Z,998.23
2019-05-06T03:54:48.780Z,998.24
2019-05-06T03:55:48.762Z,998.26
2019-05-06T03:56:48.758Z,998.23
2019-05-06T03:57:48.741Z,998.27
2019-05-06T03:58:48.767Z,998.24
2019-05-06T03:59:48.717Z,998.24
2019-05-06T04:00:48.713Z,998.24
2019-05-06T04:01:48.723Z,998.27
2019-05-06T04:02:48.684Z,998.28
2019-05-06T04:03:55.865Z,998.26
2019-05-06T04:04:53.454Z,998.30
2019-05-06T04:05:49.648Z,998.28
2019-05-06T04:06:48.643Z,998.27
2019-05-06T04:07:48.631Z,998.28
2019-05-06T04:08:48.632Z,998.28
2019-05-06T04:09:48.631Z,998.26
2019-05-06T04:10:48.617Z,998.32
2019-05-06T04:11:48.585Z,998.26
2019-05-06T04:12:48.577Z,998.28
2019-05-06T04:13:48.595Z,998.33
2019-05-06T04:14:48.547Z,998.29
2019-05-06T04:15:48.537Z,998.35
2019-05-06T04:16:48.556Z,998.34
2019-05-06T04:17:48.520Z,998.37
2019-05-06T04:18:48.501Z,998.36
2019-05-06T04:19:48.497Z,998.35
2019-05-06T04:20:48.515Z,998.33
2019-05-06T04:21:48.492Z,998.37
2019-05-06T04:22:48.474Z,998.36
2019-05-06T04:23:48.452Z,998.23
2019-05-06T04:24:48.457Z,998.26
2019-05-06T04:25:48.440Z,998.32
2019-05-06T04:26:48.441Z,998.34
2019-05-06T04:27:48.404Z,998.33
2019-05-06T04:28:48.456Z,998.32
2019-05-06T04:29:48.384Z,998.34
2019-05-06T04:30:48.375Z,998.38
2019-05-06T04:31:48.365Z,998.33
2019-05-06T04:32:48.373Z,998.33
2019-05-06T04:34:05.227Z,998.38
2019-05-06T04:34:49.397Z,998.36
2019-05-06T04:35:48.337Z,998.36
2019-05-06T04:36:48.299Z,998.36
2019-05-06T04:37:48.292Z,998.41
2019-05-06T04:38:48.300Z,998.36
2019-05-06T04:39:48.275Z,998.36
2019-05-06T04:40:48.279Z,998.33
2019-05-06T04:41:48.280Z,998.35
2019-05-06T04:42:48.235Z,998.32
2019-05-06T04:43:48.227Z,998.34
2019-05-06T04:44:48.213Z,998.37
2019-05-06T04:45:48.206Z,998.42
2019-05-06T04:46:48.222Z,998.39
2019-05-06T04:47:48.180Z,998.44
2019-05-06T04:48:48.233Z,998.42
2019-05-06T04:49:48.176Z,998.50
2019-05-06T04:50:48.149Z,998.47
2019-05-06T04:51:48.133Z,998.48
2019-05-06T04:52:48.182Z,998.46
2019-05-06T04:53:48.131Z,998.54
2019-05-06T04:54:48.100Z,998.55
2019-05-06T04:55:48.097Z,998.54
2019-05-06T04:56:48.081Z,998.55
2019-05-06T04:57:48.067Z,998.60
2019-05-06T04:58:48.085Z,998.61
2019-05-06T04:59:48.054Z,998.58
2019-05-06T05:00:48.042Z,998.63
2019-05-06T05:01:48.023Z,998.63
2019-05-06T05:02:48.012Z,998.63
2019-05-06T05:03:48.046Z,998.65
2019-05-06T05:04:48.002Z,998.63
2019-05-06T05:05:47.993Z,998.61
2019-05-06T05:06:47.969Z,998.63
2019-05-06T05:07:47.964Z,998.64
2019-05-06T05:08:47.947Z,998.61
2019-05-06T05:09:47.945Z,998.61
2019-05-06T05:10:47.936Z,998.58
2019-05-06T05:11:47.907Z,998.59
2019-05-06T05:12:47.896Z,998.63
2019-05-06T05:13:47.890Z,998.65
2019-05-06T05:14:47.884Z,998.65
2019-05-06T05:15:47.862Z,998.75
2019-05-06T05:16:47.877Z,998.75
2019-05-06T05:17:47.845Z,998.81
2019-05-06T05:18:47.833Z,998.84
2019-05-06T05:19:47.842Z,998.80
2019-05-06T05:20:47.811Z,998.85
2019-05-06T05:21:47.796Z,998.86
2019-05-06T05:22:47.800Z,998.84
2019-05-06T05:23:47.778Z,998.86
2019-05-06T05:24:47.765Z,998.86
2019-05-06T05:25:47.751Z,998.81
2019-05-06T05:26:47.746Z,998.81
2019-05-06T05:27:47.733Z,998.77
2019-05-06T05:28:47.743Z,998.84
2019-05-06T05:29:47.762Z,998.83
2019-05-06T05:30:47.699Z,998.86
2019-05-06T05:31:47.686Z,998.94
2019-05-06T05:32:47.676Z,998.90
2019-05-06T05:33:47.670Z,998.91
2019-05-06T05:34:47.677Z,998.93
2019-05-06T05:35:47.689Z,998.96
2019-05-06T05:36:47.639Z,998.86
2019-05-06T05:37:47.623Z,998.91
2019-05-06T05:38:47.622Z,998.90
2019-05-06T05:39:47.601Z,998.95
2019-05-06T05:40:47.611Z,998.88
2019-05-06T05:41:47.587Z,998.94
2019-05-06T05:42:47.576Z,998.89
2019-05-06T05:43:47.565Z,998.91
2019-05-06T05:44:47.567Z,998.89
2019-05-06T05:45:47.530Z,998.92
2019-05-06T05:46:47.550Z,998.91
2019-05-06T05:47:47.519Z,998.86
2019-05-06T05:48:47.504Z,998.90
2019-05-06T05:49:47.487Z,998.85
2019-05-06T05:50:47.479Z,998.89
2019-05-06T05:51:47.471Z,998.91
2019-05-06T05:52:47.475Z,998.88
2019-05-06T05:53:47.446Z,998.88
2019-05-06T05:54:47.430Z,998.96
2019-05-06T05:55:47.419Z,998.93
2019-05-06T05:56:47.418Z,998.90
2019-05-06T05:57:47.400Z,998.97
2019-05-06T05:58:47.401Z,998.89
2019-05-06T05:59:47.377Z,998.88
2019-05-06T06:00:47.368Z,998.86
2019-05-06T06:01:47.389Z,998.88
2019-05-06T06:02:47.346Z,998.92
2019-05-06T06:03:47.339Z,998.93
2019-05-06T06:04:56.460Z,998.88
2019-05-06T06:05:48.308Z,998.90
2019-05-06T06:06:47.303Z,998.92
2019-05-06T06:07:47.293Z,998.92
2019-05-06T06:08:47.279Z,998.87
2019-05-06T06:09:47.284Z,998.89
2019-05-06T06:10:47.281Z,998.94
2019-05-06T06:11:47.243Z,998.95
2019-05-06T06:12:47.232Z,998.94
2019-05-06T06:13:47.222Z,998.98
2019-05-06T06:14:47.474Z,998.96
2019-05-06T06:15:47.205Z,998.94
2019-05-06T06:16:47.208Z,998.94
2019-05-06T06:17:47.188Z,998.91
2019-05-06T06:18:47.166Z,998.99
2019-05-06T06:19:47.159Z,998.99
2019-05-06T06:20:47.151Z,998.99
2019-05-06T06:21:47.133Z,999.01
2019-05-06T06:22:47.139Z,999.01
2019-05-06T06:23:47.115Z,999.04
2019-05-06T06:24:47.109Z,999.01
2019-05-06T06:25:47.094Z,999.02
2019-05-06T06:26:47.096Z,999.03
2019-05-06T06:27:47.079Z,999.02
2019-05-06T06:28:47.092Z,999.00
2019-05-06T06:29:47.049Z,999.04
2019-05-06T06:30:47.041Z,999.05
2019-05-06T06:31:47.034Z,999.08
2019-05-06T06:32:47.042Z,999.09
2019-05-06T06:33:47.009Z,999.12
2019-05-06T06:34:47.015Z,999.12
2019-05-06T06:35:46.993Z,999.04
2019-05-06T06:36:46.983Z,999.12
2019-05-06T06:37:46.978Z,999.09
2019-05-06T06:38:46.993Z,999.10
2019-05-06T06:39:46.950Z,999.05
2019-05-06T06:40:46.960Z,998.99
2019-05-06T06:41:46.951Z,999.05
2019-05-06T06:42:46.932Z,999.06
2019-05-06T06:43:46.917Z,999.01
2019-05-06T06:44:46.901Z,999.04
2019-05-06T06:45:46.888Z,999.06
2019-05-06T06:46:46.956Z,999.05
2019-05-06T06:47:46.879Z,999.01
2019-05-06T06:48:46.855Z,999.04
2019-05-06T06:49:46.841Z,999.03
2019-05-06T06:50:46.833Z,999.07
2019-05-06T06:51:46.849Z,999.05
2019-05-06T06:52:46.831Z,999.05
2019-05-06T06:53:46.796Z,999.01
2019-05-06T06:54:46.785Z,999.06
2019-05-06T06:55:46.783Z,999.02
2019-05-06T06:56:46.763Z,998.97
2019-05-06T06:57:46.755Z,999.00
2019-05-06T06:58:46.766Z,999.04
2019-05-06T06:59:46.730Z,998.95
2019-05-06T07:00:46.722Z,999.01
2019-05-06T07:01:46.736Z,998.97
2019-05-06T07:02:46.695Z,999.01
2019-05-06T07:03:46.702Z,999.02
2019-05-06T07:04:46.698Z,999.02
2019-05-06T07:05:46.661Z,998.98
2019-05-06T07:06:46.657Z,998.93
2019-05-06T07:07:47.764Z,998.88
2019-05-06T07:08:46.627Z,998.75
2019-05-06T07:09:46.620Z,998.74
2019-05-06T07:10:46.628Z,998.75
2019-05-06T07:11:46.595Z,998.85
2019-05-06T07:12:46.583Z,1000.17
2019-05-06T07:13:46.583Z,1000.08
2019-05-06T07:14:46.568Z,999.69
2019-05-06T07:15:46.554Z,1000.05
2019-05-06T07:16:46.582Z,999.46
2019-05-06T07:17:46.522Z,999.77
2019-05-06T07:18:46.516Z,999.45
2019-05-06T07:19:46.499Z,999.52
2019-05-06T07:20:46.489Z,999.54
2019-05-06T07:21:46.479Z,999.48
2019-05-06T07:22:46.482Z,999.40
2019-05-06T07:23:46.452Z,999.32
2019-05-06T07:24:46.443Z,999.41
2019-05-06T07:25:46.433Z,999.39
2019-05-06T07:26:46.418Z,999.56
2019-05-06T07:27:46.407Z,999.40
2019-05-06T07:28:46.412Z,999.43
2019-05-06T07:29:48.149Z,999.41
2019-05-06T07:30:46.378Z,999.40
2019-05-06T07:31:46.362Z,999.42
2019-05-06T07:32:46.349Z,999.57
2019-05-06T07:33:46.342Z,999.43
2019-05-06T07:34:46.350Z,999.43
2019-05-06T07:35:46.316Z,999.61
2019-05-06T07:36:46.309Z,999.41
2019-05-06T07:37:46.323Z,999.40
2019-05-06T07:38:46.283Z,999.37
2019-05-06T07:39:46.284Z,999.37
2019-05-06T07:40:46.281Z,999.36
2019-05-06T07:41:46.346Z,999.29
2019-05-06T07:42:46.261Z,999.30
2019-05-06T07:43:46.227Z,999.37
2019-05-06T07:44:46.214Z,999.41
2019-05-06T07:45:46.205Z,999.36
2019-05-06T07:46:46.238Z,999.62
2019-05-06T07:47:46.179Z,999.26
2019-05-06T07:48:46.169Z,999.25
2019-05-06T07:49:46.164Z,999.29
2019-05-06T07:50:48.931Z,999.31
2019-05-06T07:51:46.137Z,999.29
2019-05-06T07:52:46.157Z,999.22
2019-05-06T07:53:46.118Z,999.21
2019-05-06T07:54:46.101Z,999.23
2019-05-06T07:55:46.097Z,999.23
2019-05-06T07:56:46.087Z,999.24
2019-05-06T07:57:46.068Z,999.13
2019-05-06T07:58:46.075Z,999.21
2019-05-06T07:59:46.071Z,999.18
2019-05-06T08:00:46.034Z,999.18
2019-05-06T08:01:46.038Z,999.20
2019-05-06T08:02:46.018Z,999.23
2019-05-06T08:03:46.000Z,999.18
2019-05-06T08:04:46.026Z,999.21
2019-05-06T08:05:55.774Z,999.19
2019-05-06T08:06:46.966Z,999.20
2019-05-06T08:07:45.957Z,999.21
2019-05-06T08:08:45.962Z,999.27
2019-05-06T08:09:45.933Z,999.26
2019-05-06T08:10:45.938Z,999.28
2019-05-06T08:11:45.910Z,999.23
2019-05-06T08:12:45.906Z,999.19
2019-05-06T08:13:45.887Z,999.16
2019-05-06T08:14:45.879Z,999.20
2019-05-06T08:15:45.867Z,999.25
2019-05-06T08:16:45.878Z,999.30
2019-05-06T08:17:45.845Z,999.21
2019-05-06T08:18:45.830Z,999.21
2019-05-06T08:19:45.820Z,999.26
2019-05-06T08:20:45.814Z,999.18
2019-05-06T08:21:45.804Z,999.20
2019-05-06T08:22:45.810Z,999.13
2019-05-06T08:23:45.776Z,999.11
2019-05-06T08:24:45.762Z,999.13
2019-05-06T08:25:45.750Z,999.14
2019-05-06T08:26:45.739Z,999.10
2019-05-06T08:27:45.738Z,999.07
2019-05-06T08:28:45.733Z,999.08
2019-05-06T08:29:45.707Z,999.06
2019-05-06T08:30:45.697Z,999.07
2019-05-06T08:31:45.681Z,999.04
2019-05-06T08:32:45.676Z,999.10
2019-05-06T08:33:45.657Z,999.14
2019-05-06T08:34:45.680Z,999.08
2019-05-06T08:35:45.639Z,999.13
2019-05-06T08:36:45.623Z,999.11
2019-05-06T08:37:45.612Z,999.10
2019-05-06T08:38:45.605Z,999.05
2019-05-06T08:39:46.175Z,999.01
2019-05-06T08:40:45.602Z,999.04
2019-05-06T08:41:45.570Z,999.08
2019-05-06T08:42:45.554Z,999.02
2019-05-06T08:43:45.544Z,999.00
2019-05-06T08:44:45.533Z,998.97
2019-05-06T08:45:45.523Z,999.00
2019-05-06T08:46:45.528Z,999.00
2019-05-06T08:47:45.501Z,999.00
2019-05-06T08:48:45.485Z,999.01
2019-05-06T08:49:45.472Z,998.99
2019-05-06T08:50:45.465Z,999.02
2019-05-06T08:51:45.448Z,998.96
2019-05-06T08:52:45.473Z,998.94
2019-05-06T08:53:45.424Z,998.91
2019-05-06T08:54:45.427Z,998.89
2019-05-06T08:55:45.422Z,998.95
2019-05-06T08:56:45.398Z,998.93
2019-05-06T08:57:45.381Z,998.88
2019-05-06T08:58:45.437Z,998.93
2019-05-06T08:59:45.353Z,998.96
2019-05-06T09:00:45.348Z,998.94
2019-05-06T09:01:45.337Z,999.00
2019-05-06T09:02:46.211Z,998.93
2019-05-06T09:03:45.322Z,998.88
2019-05-06T09:04:45.344Z,998.88
2019-05-06T09:05:45.285Z,998.82
2019-05-06T09:06:45.315Z,998.86
2019-05-06T09:07:45.256Z,998.88
2019-05-06T09:08:45.252Z,998.91
2019-05-06T09:09:45.236Z,998.92
2019-05-06T09:10:45.245Z,998.88
2019-05-06T09:11:45.213Z,998.87
2019-05-06T09:12:45.198Z,998.91
2019-05-06T09:13:45.184Z,998.92
2019-05-06T09:14:45.178Z,998.89
2019-05-06T09:15:45.162Z,998.90
2019-05-06T09:16:45.171Z,998.92
2019-05-06T09:17:45.157Z,998.92
2019-05-06T09:18:45.128Z,998.93
2019-05-06T09:19:45.129Z,998.98
2019-05-06T09:20:45.109Z,998.96
2019-05-06T09:21:46.324Z,998.99
2019-05-06T09:22:45.107Z,999.01
2019-05-06T09:23:45.086Z,999.05
2019-05-06T09:24:45.062Z,999.04
2019-05-06T09:25:45.061Z,999.00
2019-05-06T09:26:45.041Z,999.08
2019-05-06T09:27:45.027Z,999.11
2019-05-06T09:28:45.038Z,999.12
2019-05-06T09:29:45.005Z,999.16
2019-05-06T09:30:44.999Z,999.19
2019-05-06T09:31:44.983Z,999.16
2019-05-06T09:32:44.972Z,999.21
2019-05-06T09:33:44.977Z,999.19
2019-05-06T09:34:44.972Z,999.19
2019-05-06T09:35:45.058Z,999.18
2019-05-06T09:36:51.724Z,999.27
2019-05-06T09:37:45.911Z,999.21
2019-05-06T09:38:44.930Z,999.22
2019-05-06T09:39:44.884Z,999.24
2019-05-06T09:40:44.890Z,999.15
2019-05-06T09:41:47.244Z,999.20
2019-05-06T09:42:44.851Z,999.27
2019-05-06T09:43:44.842Z,999.32
2019-05-06T09:44:44.850Z,999.30
2019-05-06T09:45:44.816Z,999.54
2019-05-06T09:46:44.827Z,999.22
2019-05-06T09:47:44.795Z,999.21
2019-05-06T09:48:44.783Z,999.24
2019-05-06T09:49:44.770Z,999.52
2019-05-06T09:50:46.316Z,999.98
2019-05-06T09:51:44.748Z,999.93
2019-05-06T09:52:44.761Z,999.31
2019-05-06T09:53:44.743Z,999.62
2019-05-06T09:54:44.721Z,999.80
2019-05-06T09:55:44.703Z,1000.29
2019-05-06T09:56:44.696Z,999.68
2019-05-06T09:57:44.687Z,1000.39
2019-05-06T09:58:44.696Z,1000.36
2019-05-06T09:59:44.664Z,1000.37
2019-05-06T10:00:44.650Z,1000.34
2019-05-06T10:01:44.638Z,1000.35
2019-05-06T10:02:44.628Z,1000.33
2019-05-06T10:03:44.617Z,1000.16
2019-05-06T10:04:44.631Z,999.19
2019-05-06T10:05:44.603Z,1000.07
2019-05-06T10:06:56.340Z,1000.37
2019-05-06T10:07:45.571Z,999.48
2019-05-06T10:08:44.585Z,999.45
2019-05-06T10:09:44.558Z,999.54
2019-05-06T10:10:56.091Z,999.43
2019-05-06T10:11:45.526Z,999.33
2019-05-06T10:12:44.517Z,999.32
2019-05-06T10:13:44.509Z,999.36
2019-05-06T10:14:44.495Z,1000.45
2019-05-06T10:15:44.484Z,999.34
2019-05-06T10:16:44.502Z,999.22
2019-05-06T10:17:44.466Z,999.19
2019-05-06T10:18:44.453Z,999.26
2019-05-06T10:19:44.443Z,999.25
2019-05-06T10:20:44.430Z,999.24
2019-05-06T10:21:44.423Z,999.56
2019-05-06T10:22:44.437Z,999.22
2019-05-06T10:23:44.399Z,999.53
2019-05-06T10:24:44.388Z,999.27
2019-05-06T10:25:44.380Z,999.30
2019-05-06T10:26:44.364Z,999.69
2019-05-06T10:27:44.356Z,999.50
2019-05-06T10:28:44.362Z,999.81
2019-05-06T10:29:44.345Z,1000.33
2019-05-06T10:30:44.320Z,1000.29
2019-05-06T10:31:44.315Z,1000.23
2019-05-06T10:32:44.306Z,999.77
2019-05-06T10:33:44.299Z,999.18
2019-05-06T10:34:44.296Z,999.33
2019-05-06T10:35:44.264Z,1000.26
2019-05-06T10:36:44.254Z,999.59
2019-05-06T10:37:44.253Z,999.16
2019-05-06T10:38:44.252Z,999.09
2019-05-06T10:39:44.221Z,998.96
2019-05-06T10:41:00.064Z,998.91
2019-05-06T10:41:45.204Z,998.92
2019-05-06T10:42:44.190Z,998.87
2019-05-06T10:43:44.179Z,998.86
2019-05-06T10:44:44.167Z,998.83
2019-05-06T10:45:44.163Z,998.77
2019-05-06T10:46:44.170Z,998.76
2019-05-06T10:47:44.137Z,998.70
2019-05-06T10:48:44.125Z,998.71
2019-05-06T10:49:44.118Z,998.72
2019-05-06T10:50:44.101Z,998.70
2019-05-06T10:51:44.096Z,998.68
2019-05-06T10:52:44.099Z,998.73
2019-05-06T10:53:44.067Z,998.71
2019-05-06T10:54:44.057Z,998.73
2019-05-06T10:55:44.056Z,998.69
2019-05-06T10:56:53.788Z,998.76
2019-05-06T10:57:45.042Z,998.67
2019-05-06T10:58:44.187Z,998.73
2019-05-06T10:59:43.999Z,998.73
2019-05-06T11:00:43.992Z,998.75
2019-05-06T11:01:43.988Z,998.71
2019-05-06T11:02:43.968Z,998.72
2019-05-06T11:03:43.984Z,998.71
2019-05-06T11:04:43.943Z,998.71
2019-05-06T11:05:43.935Z,998.74
2019-05-06T11:06:43.933Z,998.77
2019-05-06T11:07:43.913Z,998.70
2019-05-06T11:08:43.897Z,998.68
2019-05-06T11:09:43.914Z,998.73
2019-05-06T11:10:45.474Z,998.76
2019-05-06T11:11:43.868Z,998.71
2019-05-06T11:12:43.863Z,998.70
2019-05-06T11:13:43.843Z,998.71
2019-05-06T11:14:43.852Z,998.66
2019-05-06T11:15:43.832Z,998.72
2019-05-06T11:16:43.837Z,998.67
2019-05-06T11:17:43.832Z,998.68
2019-05-06T11:18:43.785Z,998.66
2019-05-06T11:19:43.775Z,998.69
2019-05-06T11:20:44.246Z,998.65
2019-05-06T11:21:45.116Z,998.70
2019-05-06T11:22:43.836Z,998.60
2019-05-06T11:23:43.730Z,998.61
2019-05-06T11:24:43.713Z,998.57
2019-05-06T11:25:43.702Z,998.63
2019-05-06T11:26:43.712Z,998.57
2019-05-06T11:27:45.117Z,998.63
2019-05-06T11:28:43.663Z,998.60
2019-05-06T11:29:43.688Z,998.61
2019-05-06T11:30:43.639Z,998.64
2019-05-06T11:31:43.732Z,998.62
2019-05-06T11:32:44.386Z,998.68
2019-05-06T11:33:43.626Z,998.64
2019-05-06T11:34:43.595Z,998.65
2019-05-06T11:35:43.597Z,998.64
2019-05-06T11:36:43.573Z,998.64
2019-05-06T11:37:49.788Z,998.65
2019-05-06T11:38:44.567Z,998.61
2019-05-06T11:39:43.536Z,998.58
2019-05-06T11:40:43.524Z,998.55
2019-05-06T11:42:01.063Z,998.53
2019-05-06T11:42:44.514Z,998.53
2019-05-06T11:43:43.500Z,998.56
2019-05-06T11:44:44.204Z,998.55
2019-05-06T11:45:43.463Z,998.55
2019-05-06T11:46:43.452Z,998.59
2019-05-06T11:47:43.459Z,998.54
2019-05-06T11:48:43.428Z,998.57
2019-05-06T11:49:44.145Z,998.57
2019-05-06T11:50:43.428Z,998.58
2019-05-06T11:51:43.713Z,998.56
2019-05-06T11:52:43.703Z,998.62
2019-05-06T11:53:43.368Z,998.68
2019-05-06T11:54:43.359Z,998.59
2019-05-06T11:55:43.351Z,998.54
2019-05-06T11:56:51.324Z,998.52
2019-05-06T11:57:44.581Z,998.55
2019-05-06T11:58:43.321Z,998.54
2019-05-06T11:59:43.540Z,998.58
2019-05-06T12:00:44.538Z,998.57
2019-05-06T12:01:43.512Z,998.59
2019-05-06T12:02:48.111Z,998.55
2019-05-06T12:03:44.255Z,998.60
2019-05-06T12:04:43.239Z,998.60
2019-05-06T12:05:43.241Z,998.59
2019-05-06T12:06:43.222Z,998.53
2019-05-06T12:07:48.088Z,998.58
2019-05-06T12:08:44.219Z,998.62
2019-05-06T12:09:43.187Z,998.57
2019-05-06T12:10:43.186Z,998.58
2019-05-06T12:11:43.439Z,998.53
2019-05-06T12:12:43.151Z,998.60
2019-05-06T12:13:43.144Z,998.65
2019-05-06T12:14:43.160Z,998.61
2019-05-06T12:15:43.118Z,998.56
2019-05-06T12:16:43.116Z,998.61
2019-05-06T12:17:43.093Z,998.63
2019-05-06T12:18:43.086Z,998.59
2019-05-06T12:19:43.388Z,998.58
2019-05-06T12:20:43.077Z,998.63
2019-05-06T12:21:43.270Z,998.63
2019-05-06T12:22:43.043Z,998.59
2019-05-06T12:23:44.938Z,998.64
2019-05-06T12:24:43.238Z,998.67
2019-05-06T12:25:45.328Z,998.67
2019-05-06T12:26:43.156Z,998.69
2019-05-06T12:27:43.212Z,998.65